sensor_id;sensor_type;location;lat;lon;timestamp;temperature;humidity
23188;DHT22;11762;59.878;17.686;2022-12-28T00:01:05;-2.40;99.90
23188;DHT22;11762;59.878;17.686;2022-12-28T00:03:33;-2.50;99.90
23188;DHT22;11762;59.878;17.686;2022-12-28T00:06:00;-2.50;99.90
23188;DHT22;11762;59.878;17.686;2022-12-28T00:08:27;-2.50;99.90
23188;DHT22;11762;59.878;17.686;2022-12-28T00:11:00;-2.50;99.90
23188;DHT22;11762;59.878;17.686;2022-12-28T00:13:32;-2.50;99.90
23188;DHT22;11762;59.878;17.686;2022-12-28T00:16:05;-2.50;99.90
23188;DHT22;11762;59.878;17.686;2022-12-28T00:18:33;-2.50;99.90
23188;DHT22;11762;59.878;17.686;2022-12-28T00:21:00;-2.60;99.90
23188;DHT22;11762;59.878;17.686;2022-12-28T00:23:28;-2.60;99.90
23188;DHT22;11762;59.878;17.686;2022-12-28T00:25:55;-2.60;99.90
23188;DHT22;11762;59.878;17.686;2022-12-28T00:28:24;-2.70;99.90
23188;DHT22;11762;59.878;17.686;2022-12-28T00:30:51;-2.70;99.90
23188;DHT22;11762;59.878;17.686;2022-12-28T00:33:18;-2.80;99.90
23188;DHT22;11762;59.878;17.686;2022-12-28T00:35:52;-2.80;99.90
23188;DHT22;11762;59.878;17.686;2022-12-28T00:38:19;-2.80;99.90
23188;DHT22;11762;59.878;17.686;2022-12-28T00:40:46;-2.80;99.90
23188;DHT22;11762;59.878;17.686;2022-12-28T00:43:13;-2.80;99.90
23188;DHT22;11762;59.878;17.686;2022-12-28T00:45:44;-2.80;99.90
23188;DHT22;11762;59.878;17.686;2022-12-28T00:48:12;-2.80;99.90
23188;DHT22;11762;59.878;17.686;2022-12-28T00:50:40;-2.90;99.90
23188;DHT22;11762;59.878;17.686;2022-12-28T00:53:07;-2.90;99.90
23188;DHT22;11762;59.878;17.686;2022-12-28T00:55:35;-2.90;99.90
23188;DHT22;11762;59.878;17.686;2022-12-28T00:58:03;-2.90;99.90
23188;DHT22;11762;59.878;17.686;2022-12-28T01:00:31;-3.00;99.90
23188;DHT22;11762;59.878;17.686;2022-12-28T01:03:00;-3.00;99.90
23188;DHT22;11762;59.878;17.686;2022-12-28T01:05:27;-3.00;99.90
23188;DHT22;11762;59.878;17.686;2022-12-28T01:07:54;-3.00;99.90
23188;DHT22;11762;59.878;17.686;2022-12-28T01:10:22;-3.00;99.90
23188;DHT22;11762;59.878;17.686;2022-12-28T01:12:49;-3.00;99.90
23188;DHT22;11762;59.878;17.686;2022-12-28T01:15:20;-2.90;99.90
23188;DHT22;11762;59.878;17.686;2022-12-28T01:17:48;-2.90;99.90
23188;DHT22;11762;59.878;17.686;2022-12-28T01:20:17;-3.00;99.90
23188;DHT22;11762;59.878;17.686;2022-12-28T01:22:44;-3.00;99.90
23188;DHT22;11762;59.878;17.686;2022-12-28T01:25:11;-3.00;99.90
23188;DHT22;11762;59.878;17.686;2022-12-28T01:27:39;-3.00;99.90
23188;DHT22;11762;59.878;17.686;2022-12-28T01:30:07;-3.00;99.90
23188;DHT22;11762;59.878;17.686;2022-12-28T01:32:34;-3.00;99.90
23188;DHT22;11762;59.878;17.686;2022-12-28T01:35:02;-3.00;99.90
23188;DHT22;11762;59.878;17.686;2022-12-28T01:37:30;-3.10;99.90
23188;DHT22;11762;59.878;17.686;2022-12-28T01:39:57;-3.10;99.90
23188;DHT22;11762;59.878;17.686;2022-12-28T01:42:25;-3.10;99.90
23188;DHT22;11762;59.878;17.686;2022-12-28T01:44:54;-3.10;99.90
23188;DHT22;11762;59.878;17.686;2022-12-28T01:47:23;-3.10;99.90
23188;DHT22;11762;59.878;17.686;2022-12-28T01:50:00;-3.10;99.90
23188;DHT22;11762;59.878;17.686;2022-12-28T01:52:33;-3.10;99.90
23188;DHT22;11762;59.878;17.686;2022-12-28T01:55:05;-3.10;99.90
23188;DHT22;11762;59.878;17.686;2022-12-28T01:57:40;-3.10;99.90
23188;DHT22;11762;59.878;17.686;2022-12-28T02:00:13;-3.20;99.90
23188;DHT22;11762;59.878;17.686;2022-12-28T02:02:44;-3.20;99.90
23188;DHT22;11762;59.878;17.686;2022-12-28T02:05:12;-3.20;99.90
23188;DHT22;11762;59.878;17.686;2022-12-28T02:07:45;-3.20;99.90
23188;DHT22;11762;59.878;17.686;2022-12-28T02:10:14;-3.30;99.90
23188;DHT22;11762;59.878;17.686;2022-12-28T02:12:42;-3.30;99.90
23188;DHT22;11762;59.878;17.686;2022-12-28T02:15:10;-3.30;99.90
23188;DHT22;11762;59.878;17.686;2022-12-28T02:17:37;-3.30;99.90
23188;DHT22;11762;59.878;17.686;2022-12-28T02:20:06;-3.30;99.90
23188;DHT22;11762;59.878;17.686;2022-12-28T02:23:00;-3.30;99.90
23188;DHT22;11762;59.878;17.686;2022-12-28T02:25:58;-3.40;99.90
23188;DHT22;11762;59.878;17.686;2022-12-28T02:29:12;-3.40;99.90
23188;DHT22;11762;59.878;17.686;2022-12-28T02:31:45;-3.50;99.90
23188;DHT22;11762;59.878;17.686;2022-12-28T02:34:22;-3.50;99.90
23188;DHT22;11762;59.878;17.686;2022-12-28T02:36:55;-3.60;99.90
23188;DHT22;11762;59.878;17.686;2022-12-28T02:39:27;-3.60;99.90
23188;DHT22;11762;59.878;17.686;2022-12-28T02:41:55;-3.60;99.90
23188;DHT22;11762;59.878;17.686;2022-12-28T02:44:24;-3.60;99.90
23188;DHT22;11762;59.878;17.686;2022-12-28T02:47:13;-3.70;99.90
23188;DHT22;11762;59.878;17.686;2022-12-28T02:49:59;-3.70;99.90
23188;DHT22;11762;59.878;17.686;2022-12-28T02:55:40;-3.80;99.90
23188;DHT22;11762;59.878;17.686;2022-12-28T02:58:45;-3.80;99.90
23188;DHT22;11762;59.878;17.686;2022-12-28T03:01:21;-3.90;99.90
23188;DHT22;11762;59.878;17.686;2022-12-28T03:04:02;-3.90;99.90
23188;DHT22;11762;59.878;17.686;2022-12-28T03:06:39;-3.90;99.90
23188;DHT22;11762;59.878;17.686;2022-12-28T03:09:29;-3.90;99.90
23188;DHT22;11762;59.878;17.686;2022-12-28T03:12:00;-4.00;99.90
23188;DHT22;11762;59.878;17.686;2022-12-28T03:14:33;-4.10;99.90
23188;DHT22;11762;59.878;17.686;2022-12-28T03:17:04;-4.00;99.90
23188;DHT22;11762;59.878;17.686;2022-12-28T03:19:55;-4.10;99.90
23188;DHT22;11762;59.878;17.686;2022-12-28T03:22:43;-4.10;99.90
23188;DHT22;11762;59.878;17.686;2022-12-28T03:25:32;-4.00;99.90
23188;DHT22;11762;59.878;17.686;2022-12-28T03:28:21;-4.00;99.90
23188;DHT22;11762;59.878;17.686;2022-12-28T03:31:11;-4.00;99.90
23188;DHT22;11762;59.878;17.686;2022-12-28T03:33:43;-4.00;99.90
23188;DHT22;11762;59.878;17.686;2022-12-28T03:36:16;-4.00;99.90
23188;DHT22;11762;59.878;17.686;2022-12-28T03:38:51;-4.00;99.90
23188;DHT22;11762;59.878;17.686;2022-12-28T03:41:27;-4.00;99.90
23188;DHT22;11762;59.878;17.686;2022-12-28T03:43:59;-4.10;99.90
23188;DHT22;11762;59.878;17.686;2022-12-28T03:46:34;-4.10;99.90
23188;DHT22;11762;59.878;17.686;2022-12-28T03:49:03;-4.10;99.90
23188;DHT22;11762;59.878;17.686;2022-12-28T03:51:34;-4.10;99.90
23188;DHT22;11762;59.878;17.686;2022-12-28T03:54:01;-4.10;99.90
23188;DHT22;11762;59.878;17.686;2022-12-28T03:56:28;-4.10;99.90
23188;DHT22;11762;59.878;17.686;2022-12-28T03:58:55;-4.10;99.90
23188;DHT22;11762;59.878;17.686;2022-12-28T04:01:23;-4.20;99.90
23188;DHT22;11762;59.878;17.686;2022-12-28T04:03:52;-4.10;99.90
23188;DHT22;11762;59.878;17.686;2022-12-28T04:06:27;-4.10;99.90
23188;DHT22;11762;59.878;17.686;2022-12-28T04:08:54;-4.10;99.90
23188;DHT22;11762;59.878;17.686;2022-12-28T04:11:21;-4.20;99.90
23188;DHT22;11762;59.878;17.686;2022-12-28T04:13:48;-4.20;99.90
23188;DHT22;11762;59.878;17.686;2022-12-28T04:16:16;-4.20;99.90
23188;DHT22;11762;59.878;17.686;2022-12-28T04:18:43;-4.20;99.90
23188;DHT22;11762;59.878;17.686;2022-12-28T04:21:11;-4.30;99.90
23188;DHT22;11762;59.878;17.686;2022-12-28T04:23:41;-4.40;99.90
23188;DHT22;11762;59.878;17.686;2022-12-28T04:26:10;-4.40;99.90
23188;DHT22;11762;59.878;17.686;2022-12-28T04:28:38;-4.50;99.90
23188;DHT22;11762;59.878;17.686;2022-12-28T04:31:06;-4.50;99.90
23188;DHT22;11762;59.878;17.686;2022-12-28T04:33:35;-4.70;99.90
23188;DHT22;11762;59.878;17.686;2022-12-28T04:36:06;-4.70;99.90
23188;DHT22;11762;59.878;17.686;2022-12-28T04:38:34;-4.70;99.90
23188;DHT22;11762;59.878;17.686;2022-12-28T04:41:04;-4.70;99.90
23188;DHT22;11762;59.878;17.686;2022-12-28T04:43:32;-4.80;99.90
23188;DHT22;11762;59.878;17.686;2022-12-28T04:46:02;-4.80;99.90
23188;DHT22;11762;59.878;17.686;2022-12-28T04:48:29;-4.80;99.90
23188;DHT22;11762;59.878;17.686;2022-12-28T04:50:57;-4.80;99.90
23188;DHT22;11762;59.878;17.686;2022-12-28T04:53:24;-4.80;99.90
23188;DHT22;11762;59.878;17.686;2022-12-28T04:55:51;-4.80;99.90
23188;DHT22;11762;59.878;17.686;2022-12-28T04:58:21;-4.80;99.90
23188;DHT22;11762;59.878;17.686;2022-12-28T05:00:48;-4.80;99.90
23188;DHT22;11762;59.878;17.686;2022-12-28T05:03:15;-4.80;99.90
23188;DHT22;11762;59.878;17.686;2022-12-28T05:05:42;-4.80;99.90
23188;DHT22;11762;59.878;17.686;2022-12-28T05:08:12;-4.80;99.90
23188;DHT22;11762;59.878;17.686;2022-12-28T05:10:39;-4.80;99.90
23188;DHT22;11762;59.878;17.686;2022-12-28T05:13:06;-4.80;99.90
23188;DHT22;11762;59.878;17.686;2022-12-28T05:15:37;-4.80;99.90
23188;DHT22;11762;59.878;17.686;2022-12-28T05:18:04;-4.70;99.90
23188;DHT22;11762;59.878;17.686;2022-12-28T05:20:32;-4.80;99.90
23188;DHT22;11762;59.878;17.686;2022-12-28T05:22:59;-4.70;99.90
23188;DHT22;11762;59.878;17.686;2022-12-28T05:25:26;-4.70;99.90
23188;DHT22;11762;59.878;17.686;2022-12-28T05:27:54;-4.70;99.90
23188;DHT22;11762;59.878;17.686;2022-12-28T05:30:21;-4.60;99.90
23188;DHT22;11762;59.878;17.686;2022-12-28T05:32:49;-4.60;99.90
23188;DHT22;11762;59.878;17.686;2022-12-28T05:35:17;-4.60;99.90
23188;DHT22;11762;59.878;17.686;2022-12-28T05:37:44;-4.60;99.90
23188;DHT22;11762;59.878;17.686;2022-12-28T05:40:11;-4.70;99.90
23188;DHT22;11762;59.878;17.686;2022-12-28T05:42:38;-4.70;99.90
23188;DHT22;11762;59.878;17.686;2022-12-28T05:45:06;-4.70;99.90
23188;DHT22;11762;59.878;17.686;2022-12-28T05:47:33;-4.70;99.90
23188;DHT22;11762;59.878;17.686;2022-12-28T05:50:02;-4.70;99.90
23188;DHT22;11762;59.878;17.686;2022-12-28T05:52:29;-4.70;99.90
23188;DHT22;11762;59.878;17.686;2022-12-28T05:54:57;-4.80;99.90
23188;DHT22;11762;59.878;17.686;2022-12-28T05:57:24;-4.80;99.90
23188;DHT22;11762;59.878;17.686;2022-12-28T05:59:51;-4.70;99.90
23188;DHT22;11762;59.878;17.686;2022-12-28T06:02:19;-4.80;99.90
23188;DHT22;11762;59.878;17.686;2022-12-28T06:04:48;-4.80;99.90
23188;DHT22;11762;59.878;17.686;2022-12-28T06:07:17;-4.80;99.90
23188;DHT22;11762;59.878;17.686;2022-12-28T06:09:44;-4.80;99.90
23188;DHT22;11762;59.878;17.686;2022-12-28T06:12:11;-4.80;99.90
23188;DHT22;11762;59.878;17.686;2022-12-28T06:14:39;-4.90;99.90
23188;DHT22;11762;59.878;17.686;2022-12-28T06:17:06;-4.90;99.90
23188;DHT22;11762;59.878;17.686;2022-12-28T06:19:33;-5.00;99.90
23188;DHT22;11762;59.878;17.686;2022-12-28T06:22:00;-5.10;99.90
23188;DHT22;11762;59.878;17.686;2022-12-28T06:24:29;-5.10;99.90
23188;DHT22;11762;59.878;17.686;2022-12-28T06:26:56;-5.20;99.90
23188;DHT22;11762;59.878;17.686;2022-12-28T06:29:23;-5.20;99.90
23188;DHT22;11762;59.878;17.686;2022-12-28T06:31:51;-5.20;99.90
23188;DHT22;11762;59.878;17.686;2022-12-28T06:34:19;-5.20;99.90
23188;DHT22;11762;59.878;17.686;2022-12-28T06:36:49;-5.20;99.90
23188;DHT22;11762;59.878;17.686;2022-12-28T06:39:17;-5.30;99.90
23188;DHT22;11762;59.878;17.686;2022-12-28T06:41:45;-5.40;99.90
23188;DHT22;11762;59.878;17.686;2022-12-28T06:44:13;-5.30;99.90
23188;DHT22;11762;59.878;17.686;2022-12-28T06:46:42;-5.30;99.90
23188;DHT22;11762;59.878;17.686;2022-12-28T06:49:09;-5.40;99.90
23188;DHT22;11762;59.878;17.686;2022-12-28T06:51:37;-5.30;99.90
23188;DHT22;11762;59.878;17.686;2022-12-28T06:54:07;-5.30;99.90
23188;DHT22;11762;59.878;17.686;2022-12-28T06:56:37;-5.30;99.90
23188;DHT22;11762;59.878;17.686;2022-12-28T06:59:06;-5.30;99.90
23188;DHT22;11762;59.878;17.686;2022-12-28T07:01:35;-5.20;99.90
23188;DHT22;11762;59.878;17.686;2022-12-28T07:04:05;-5.20;99.90
23188;DHT22;11762;59.878;17.686;2022-12-28T07:06:35;-5.30;99.90
23188;DHT22;11762;59.878;17.686;2022-12-28T07:09:04;-5.30;99.90
23188;DHT22;11762;59.878;17.686;2022-12-28T07:11:32;-5.30;99.90
23188;DHT22;11762;59.878;17.686;2022-12-28T07:13:59;-5.30;99.90
23188;DHT22;11762;59.878;17.686;2022-12-28T07:16:29;-5.30;99.90
23188;DHT22;11762;59.878;17.686;2022-12-28T07:18:57;-5.40;99.90
23188;DHT22;11762;59.878;17.686;2022-12-28T07:21:26;-5.50;99.90
23188;DHT22;11762;59.878;17.686;2022-12-28T07:23:54;-5.50;99.90
23188;DHT22;11762;59.878;17.686;2022-12-28T07:26:23;-5.70;99.90
23188;DHT22;11762;59.878;17.686;2022-12-28T07:28:52;-5.50;99.90
23188;DHT22;11762;59.878;17.686;2022-12-28T07:31:22;-5.60;99.90
23188;DHT22;11762;59.878;17.686;2022-12-28T07:33:52;-5.50;99.90
23188;DHT22;11762;59.878;17.686;2022-12-28T07:36:20;-5.50;99.90
23188;DHT22;11762;59.878;17.686;2022-12-28T07:38:48;-5.60;99.90
23188;DHT22;11762;59.878;17.686;2022-12-28T07:41:18;-5.60;99.90
23188;DHT22;11762;59.878;17.686;2022-12-28T07:43:45;-5.60;99.90
23188;DHT22;11762;59.878;17.686;2022-12-28T07:46:14;-5.60;99.90
23188;DHT22;11762;59.878;17.686;2022-12-28T07:48:42;-5.60;99.90
23188;DHT22;11762;59.878;17.686;2022-12-28T07:51:12;-5.60;99.90
23188;DHT22;11762;59.878;17.686;2022-12-28T07:53:40;-5.60;99.90
23188;DHT22;11762;59.878;17.686;2022-12-28T07:56:08;-5.60;99.90
23188;DHT22;11762;59.878;17.686;2022-12-28T07:58:35;-5.60;99.90
23188;DHT22;11762;59.878;17.686;2022-12-28T08:01:04;-5.60;99.90
23188;DHT22;11762;59.878;17.686;2022-12-28T08:03:31;-5.60;99.90
23188;DHT22;11762;59.878;17.686;2022-12-28T08:06:03;-5.50;99.90
23188;DHT22;11762;59.878;17.686;2022-12-28T08:08:35;-5.50;99.90
23188;DHT22;11762;59.878;17.686;2022-12-28T08:11:03;-5.60;99.90
23188;DHT22;11762;59.878;17.686;2022-12-28T08:13:32;-5.60;99.90
23188;DHT22;11762;59.878;17.686;2022-12-28T08:15:59;-5.50;99.90
23188;DHT22;11762;59.878;17.686;2022-12-28T08:18:27;-5.50;99.90
23188;DHT22;11762;59.878;17.686;2022-12-28T08:20:59;-5.60;99.90
23188;DHT22;11762;59.878;17.686;2022-12-28T08:23:27;-5.60;99.90
23188;DHT22;11762;59.878;17.686;2022-12-28T08:25:56;-5.60;99.90
23188;DHT22;11762;59.878;17.686;2022-12-28T08:28:23;-5.60;99.90
23188;DHT22;11762;59.878;17.686;2022-12-28T08:30:50;-5.60;99.90
23188;DHT22;11762;59.878;17.686;2022-12-28T08:33:17;-5.80;99.90
23188;DHT22;11762;59.878;17.686;2022-12-28T08:35:45;-5.70;99.90
23188;DHT22;11762;59.878;17.686;2022-12-28T08:38:12;-5.70;99.90
23188;DHT22;11762;59.878;17.686;2022-12-28T08:40:39;-5.80;99.90
23188;DHT22;11762;59.878;17.686;2022-12-28T08:43:07;-5.70;99.90
23188;DHT22;11762;59.878;17.686;2022-12-28T08:45:34;-5.70;99.90
23188;DHT22;11762;59.878;17.686;2022-12-28T08:48:02;-5.70;99.90
23188;DHT22;11762;59.878;17.686;2022-12-28T08:50:29;-5.70;99.90
23188;DHT22;11762;59.878;17.686;2022-12-28T08:52:58;-5.70;99.90
23188;DHT22;11762;59.878;17.686;2022-12-28T08:55:25;-5.70;99.90
23188;DHT22;11762;59.878;17.686;2022-12-28T08:57:53;-5.80;99.90
23188;DHT22;11762;59.878;17.686;2022-12-28T09:00:24;-5.70;99.90
23188;DHT22;11762;59.878;17.686;2022-12-28T09:02:53;-5.70;99.90
23188;DHT22;11762;59.878;17.686;2022-12-28T09:05:21;-5.70;99.90
23188;DHT22;11762;59.878;17.686;2022-12-28T09:07:50;-5.80;99.90
23188;DHT22;11762;59.878;17.686;2022-12-28T09:10:17;-5.80;99.90
23188;DHT22;11762;59.878;17.686;2022-12-28T09:12:47;-5.80;99.90
23188;DHT22;11762;59.878;17.686;2022-12-28T09:15:14;-5.80;99.90
23188;DHT22;11762;59.878;17.686;2022-12-28T09:17:43;-5.80;99.90
23188;DHT22;11762;59.878;17.686;2022-12-28T09:20:10;-5.80;99.90
23188;DHT22;11762;59.878;17.686;2022-12-28T09:22:38;-5.80;99.90
23188;DHT22;11762;59.878;17.686;2022-12-28T09:25:05;-5.70;99.90
23188;DHT22;11762;59.878;17.686;2022-12-28T09:27:33;-5.80;99.90
23188;DHT22;11762;59.878;17.686;2022-12-28T09:30:00;-5.80;99.90
23188;DHT22;11762;59.878;17.686;2022-12-28T09:32:28;-5.90;99.90
23188;DHT22;11762;59.878;17.686;2022-12-28T09:34:56;-5.80;99.90
23188;DHT22;11762;59.878;17.686;2022-12-28T09:37:23;-5.90;99.90
23188;DHT22;11762;59.878;17.686;2022-12-28T09:39:51;-5.80;99.90
23188;DHT22;11762;59.878;17.686;2022-12-28T09:42:20;-5.80;99.90
23188;DHT22;11762;59.878;17.686;2022-12-28T09:44:52;-5.80;99.90
23188;DHT22;11762;59.878;17.686;2022-12-28T09:47:29;-5.90;99.90
23188;DHT22;11762;59.878;17.686;2022-12-28T09:53:12;-6.00;99.90
23188;DHT22;11762;59.878;17.686;2022-12-28T09:55:51;-6.00;99.90
23188;DHT22;11762;59.878;17.686;2022-12-28T09:58:20;-6.10;99.90
